sensor_id;sensor_type;location;lat;lon;timestamp;P1;durP1;ratioP1;P2;durP2;ratioP2
67839;SDS011;54636;51.684;5.142;2023-06-04T00:01:49;2.90;;;1.60;;
67839;SDS011;54636;51.684;5.142;2023-06-04T00:04:14;3.13;;;1.27;;
67839;SDS011;54636;51.684;5.142;2023-06-04T00:06:40;6.60;;;1.70;;
67839;SDS011;54636;51.684;5.142;2023-06-04T00:09:05;5.50;;;1.35;;
67839;SDS011;54636;51.684;5.142;2023-06-04T00:11:30;2.28;;;1.30;;
67839;SDS011;54636;51.684;5.142;2023-06-04T00:13:59;7.60;;;1.77;;
67839;SDS011;54636;51.684;5.142;2023-06-04T00:16:25;3.78;;;1.52;;
67839;SDS011;54636;51.684;5.142;2023-06-04T00:18:50;2.13;;;1.25;;
67839;SDS011;54636;51.684;5.142;2023-06-04T00:21:16;3.97;;;1.20;;
67839;SDS011;54636;51.684;5.142;2023-06-04T00:23:41;3.60;;;1.50;;
67839;SDS011;54636;51.684;5.142;2023-06-04T00:26:07;9.57;;;1.90;;
67839;SDS011;54636;51.684;5.142;2023-06-04T00:28:33;1.25;;;1.15;;
67839;SDS011;54636;51.684;5.142;2023-06-04T00:30:58;2.28;;;1.40;;
67839;SDS011;54636;51.684;5.142;2023-06-04T00:33:23;9.38;;;1.50;;
67839;SDS011;54636;51.684;5.142;2023-06-04T00:35:49;3.22;;;1.73;;
67839;SDS011;54636;51.684;5.142;2023-06-04T00:38:14;3.35;;;1.52;;
67839;SDS011;54636;51.684;5.142;2023-06-04T00:40:40;1.55;;;1.45;;
67839;SDS011;54636;51.684;5.142;2023-06-04T00:43:05;2.05;;;1.23;;
67839;SDS011;54636;51.684;5.142;2023-06-04T00:45:31;4.30;;;1.45;;
67839;SDS011;54636;51.684;5.142;2023-06-04T00:47:56;4.95;;;1.73;;
67839;SDS011;54636;51.684;5.142;2023-06-04T00:50:22;3.15;;;1.52;;
67839;SDS011;54636;51.684;5.142;2023-06-04T00:52:49;4.78;;;1.60;;
67839;SDS011;54636;51.684;5.142;2023-06-04T00:55:16;4.35;;;1.63;;
67839;SDS011;54636;51.684;5.142;2023-06-04T00:57:43;1.40;;;1.30;;
67839;SDS011;54636;51.684;5.142;2023-06-04T01:00:09;10.13;;;1.70;;
67839;SDS011;54636;51.684;5.142;2023-06-04T01:02:38;4.63;;;1.90;;
67839;SDS011;54636;51.684;5.142;2023-06-04T01:05:24;3.20;;;1.60;;
67839;SDS011;54636;51.684;5.142;2023-06-04T01:07:54;1.88;;;1.50;;
67839;SDS011;54636;51.684;5.142;2023-06-04T01:10:22;3.20;;;1.42;;
67839;SDS011;54636;51.684;5.142;2023-06-04T01:12:47;2.15;;;1.67;;
67839;SDS011;54636;51.684;5.142;2023-06-04T01:15:13;2.88;;;1.42;;
67839;SDS011;54636;51.684;5.142;2023-06-04T01:17:42;4.35;;;1.38;;
67839;SDS011;54636;51.684;5.142;2023-06-04T01:25:17;6.93;;;1.35;;
67839;SDS011;54636;51.684;5.142;2023-06-04T01:27:49;5.43;;;2.05;;
67839;SDS011;54636;51.684;5.142;2023-06-04T01:30:17;5.88;;;1.80;;
67839;SDS011;54636;51.684;5.142;2023-06-04T01:32:45;2.03;;;1.60;;
67839;SDS011;54636;51.684;5.142;2023-06-04T01:35:11;4.50;;;1.63;;
67839;SDS011;54636;51.684;5.142;2023-06-04T01:37:37;5.53;;;2.00;;
67839;SDS011;54636;51.684;5.142;2023-06-04T01:40:03;4.40;;;1.50;;
67839;SDS011;54636;51.684;5.142;2023-06-04T01:42:30;5.30;;;1.80;;
67839;SDS011;54636;51.684;5.142;2023-06-04T01:44:56;2.08;;;1.77;;
67839;SDS011;54636;51.684;5.142;2023-06-04T01:47:21;2.28;;;1.45;;
67839;SDS011;54636;51.684;5.142;2023-06-04T01:49:47;4.07;;;2.20;;
67839;SDS011;54636;51.684;5.142;2023-06-04T01:52:12;1.92;;;1.70;;
67839;SDS011;54636;51.684;5.142;2023-06-04T01:54:37;3.03;;;1.90;;
67839;SDS011;54636;51.684;5.142;2023-06-04T01:57:03;2.75;;;1.63;;
67839;SDS011;54636;51.684;5.142;2023-06-04T01:59:30;2.05;;;1.95;;
67839;SDS011;54636;51.684;5.142;2023-06-04T02:01:57;2.38;;;1.55;;
67839;SDS011;54636;51.684;5.142;2023-06-04T02:04:22;5.80;;;1.80;;
67839;SDS011;54636;51.684;5.142;2023-06-04T02:06:48;2.13;;;1.92;;
67839;SDS011;54636;51.684;5.142;2023-06-04T02:09:15;6.28;;;1.55;;
67839;SDS011;54636;51.684;5.142;2023-06-04T02:11:41;2.05;;;1.77;;
67839;SDS011;54636;51.684;5.142;2023-06-04T02:14:06;4.10;;;1.88;;
67839;SDS011;54636;51.684;5.142;2023-06-04T02:16:31;2.83;;;1.40;;
67839;SDS011;54636;51.684;5.142;2023-06-04T02:18:58;2.38;;;2.08;;
67839;SDS011;54636;51.684;5.142;2023-06-04T02:21:24;5.20;;;2.28;;
67839;SDS011;54636;51.684;5.142;2023-06-04T02:23:50;7.03;;;2.03;;
67839;SDS011;54636;51.684;5.142;2023-06-04T02:26:15;1.73;;;1.60;;
67839;SDS011;54636;51.684;5.142;2023-06-04T02:28:41;3.97;;;1.98;;
67839;SDS011;54636;51.684;5.142;2023-06-04T02:31:06;1.70;;;1.50;;
67839;SDS011;54636;51.684;5.142;2023-06-04T02:33:32;3.47;;;1.63;;
67839;SDS011;54636;51.684;5.142;2023-06-04T02:35:57;4.25;;;2.00;;
67839;SDS011;54636;51.684;5.142;2023-06-04T02:38:22;3.22;;;2.05;;
67839;SDS011;54636;51.684;5.142;2023-06-04T02:40:48;2.28;;;1.80;;
67839;SDS011;54636;51.684;5.142;2023-06-04T02:43:13;2.45;;;1.60;;
67839;SDS011;54636;51.684;5.142;2023-06-04T02:45:39;2.70;;;1.45;;
67839;SDS011;54636;51.684;5.142;2023-06-04T02:48:04;3.25;;;1.77;;
67839;SDS011;54636;51.684;5.142;2023-06-04T02:50:30;4.30;;;1.55;;
67839;SDS011;54636;51.684;5.142;2023-06-04T02:52:55;1.70;;;1.60;;
67839;SDS011;54636;51.684;5.142;2023-06-04T02:55:20;4.78;;;1.83;;
67839;SDS011;54636;51.684;5.142;2023-06-04T02:57:46;2.83;;;1.77;;
67839;SDS011;54636;51.684;5.142;2023-06-04T03:00:12;3.70;;;1.60;;
67839;SDS011;54636;51.684;5.142;2023-06-04T03:02:39;2.22;;;1.92;;
67839;SDS011;54636;51.684;5.142;2023-06-04T03:05:09;2.20;;;1.63;;
67839;SDS011;54636;51.684;5.142;2023-06-04T03:07:36;1.70;;;1.60;;
67839;SDS011;54636;51.684;5.142;2023-06-04T03:10:02;2.30;;;1.70;;
67839;SDS011;54636;51.684;5.142;2023-06-04T03:12:31;4.22;;;1.83;;
67839;SDS011;54636;51.684;5.142;2023-06-04T03:14:56;2.72;;;1.70;;
67839;SDS011;54636;51.684;5.142;2023-06-04T03:17:22;2.85;;;1.63;;
67839;SDS011;54636;51.684;5.142;2023-06-04T03:19:47;1.92;;;1.73;;
67839;SDS011;54636;51.684;5.142;2023-06-04T03:22:13;1.77;;;1.58;;
67839;SDS011;54636;51.684;5.142;2023-06-04T03:24:40;2.10;;;2.00;;
67839;SDS011;54636;51.684;5.142;2023-06-04T03:27:06;3.75;;;1.73;;
67839;SDS011;54636;51.684;5.142;2023-06-04T03:29:33;4.78;;;1.77;;
67839;SDS011;54636;51.684;5.142;2023-06-04T03:31:59;2.03;;;1.60;;
67839;SDS011;54636;51.684;5.142;2023-06-04T03:34:25;2.15;;;1.73;;
67839;SDS011;54636;51.684;5.142;2023-06-04T03:36:54;2.92;;;2.22;;
67839;SDS011;54636;51.684;5.142;2023-06-04T03:39:20;3.03;;;1.90;;
67839;SDS011;54636;51.684;5.142;2023-06-04T03:41:46;1.98;;;1.85;;
67839;SDS011;54636;51.684;5.142;2023-06-04T03:44:15;2.60;;;1.65;;
67839;SDS011;54636;51.684;5.142;2023-06-04T03:46:42;3.47;;;2.10;;
67839;SDS011;54636;51.684;5.142;2023-06-04T03:49:11;2.22;;;2.03;;
67839;SDS011;54636;51.684;5.142;2023-06-04T03:51:38;2.58;;;1.90;;
67839;SDS011;54636;51.684;5.142;2023-06-04T03:54:03;4.93;;;1.80;;
67839;SDS011;54636;51.684;5.142;2023-06-04T03:56:30;4.72;;;2.10;;
67839;SDS011;54636;51.684;5.142;2023-06-04T03:58:55;5.72;;;1.80;;
67839;SDS011;54636;51.684;5.142;2023-06-04T04:01:21;2.67;;;2.10;;
67839;SDS011;54636;51.684;5.142;2023-06-04T04:03:48;2.42;;;2.22;;
67839;SDS011;54636;51.684;5.142;2023-06-04T04:06:14;4.30;;;1.80;;
67839;SDS011;54636;51.684;5.142;2023-06-04T04:08:40;2.17;;;1.98;;
67839;SDS011;54636;51.684;5.142;2023-06-04T04:11:13;3.28;;;2.10;;
67839;SDS011;54636;51.684;5.142;2023-06-04T04:13:39;2.15;;;1.95;;
67839;SDS011;54636;51.684;5.142;2023-06-04T04:16:05;7.85;;;2.33;;
67839;SDS011;54636;51.684;5.142;2023-06-04T04:18:34;2.65;;;2.17;;
67839;SDS011;54636;51.684;5.142;2023-06-04T04:21:00;2.03;;;1.83;;
67839;SDS011;54636;51.684;5.142;2023-06-04T04:23:26;2.00;;;1.90;;
67839;SDS011;54636;51.684;5.142;2023-06-04T04:25:53;4.68;;;2.10;;
67839;SDS011;54636;51.684;5.142;2023-06-04T04:28:19;2.88;;;1.83;;
67839;SDS011;54636;51.684;5.142;2023-06-04T04:30:45;2.58;;;1.88;;
67839;SDS011;54636;51.684;5.142;2023-06-04T04:33:11;2.65;;;1.70;;
67839;SDS011;54636;51.684;5.142;2023-06-04T04:35:40;3.10;;;1.80;;
67839;SDS011;54636;51.684;5.142;2023-06-04T04:38:09;1.85;;;1.75;;
67839;SDS011;54636;51.684;5.142;2023-06-04T04:40:35;2.95;;;2.08;;
67839;SDS011;54636;51.684;5.142;2023-06-04T04:43:01;2.80;;;1.90;;
67839;SDS011;54636;51.684;5.142;2023-06-04T04:45:27;6.30;;;2.17;;
67839;SDS011;54636;51.684;5.142;2023-06-04T04:47:52;1.75;;;1.65;;
67839;SDS011;54636;51.684;5.142;2023-06-04T04:50:18;2.17;;;1.65;;
67839;SDS011;54636;51.684;5.142;2023-06-04T04:52:43;4.22;;;2.00;;
67839;SDS011;54636;51.684;5.142;2023-06-04T04:55:08;2.85;;;1.65;;
67839;SDS011;54636;51.684;5.142;2023-06-04T04:57:35;2.03;;;1.75;;
67839;SDS011;54636;51.684;5.142;2023-06-04T05:00:04;3.85;;;1.70;;
67839;SDS011;54636;51.684;5.142;2023-06-04T05:02:31;2.15;;;1.70;;
67839;SDS011;54636;51.684;5.142;2023-06-04T05:04:56;3.80;;;1.88;;
67839;SDS011;54636;51.684;5.142;2023-06-04T05:07:21;3.90;;;1.60;;
67839;SDS011;54636;51.684;5.142;2023-06-04T05:09:48;4.72;;;1.80;;
67839;SDS011;54636;51.684;5.142;2023-06-04T05:12:14;2.08;;;1.90;;
67839;SDS011;54636;51.684;5.142;2023-06-04T05:14:39;3.60;;;2.03;;
67839;SDS011;54636;51.684;5.142;2023-06-04T05:17:06;3.53;;;1.80;;
67839;SDS011;54636;51.684;5.142;2023-06-04T05:19:38;4.68;;;1.80;;
67839;SDS011;54636;51.684;5.142;2023-06-04T05:22:04;2.75;;;1.63;;
67839;SDS011;54636;51.684;5.142;2023-06-04T05:24:30;2.97;;;2.10;;
67839;SDS011;54636;51.684;5.142;2023-06-04T05:26:57;3.50;;;1.85;;
67839;SDS011;54636;51.684;5.142;2023-06-04T05:29:23;2.22;;;1.92;;
67839;SDS011;54636;51.684;5.142;2023-06-04T05:31:49;3.35;;;1.95;;
67839;SDS011;54636;51.684;5.142;2023-06-04T05:34:15;2.15;;;1.92;;
67839;SDS011;54636;51.684;5.142;2023-06-04T05:36:41;2.40;;;1.92;;
67839;SDS011;54636;51.684;5.142;2023-06-04T05:39:07;5.43;;;2.15;;
67839;SDS011;54636;51.684;5.142;2023-06-04T05:41:34;1.65;;;1.40;;
67839;SDS011;54636;51.684;5.142;2023-06-04T05:44:03;3.97;;;2.10;;
67839;SDS011;54636;51.684;5.142;2023-06-04T05:46:31;3.33;;;2.00;;
67839;SDS011;54636;51.684;5.142;2023-06-04T05:48:57;2.10;;;1.95;;
67839;SDS011;54636;51.684;5.142;2023-06-04T05:51:22;3.55;;;1.95;;
67839;SDS011;54636;51.684;5.142;2023-06-04T05:53:48;5.13;;;2.00;;
67839;SDS011;54636;51.684;5.142;2023-06-04T05:56:13;1.70;;;1.40;;
67839;SDS011;54636;51.684;5.142;2023-06-04T05:58:38;4.25;;;2.10;;
67839;SDS011;54636;51.684;5.142;2023-06-04T06:01:04;2.13;;;1.88;;
67839;SDS011;54636;51.684;5.142;2023-06-04T06:03:30;4.15;;;2.00;;
67839;SDS011;54636;51.684;5.142;2023-06-04T06:05:55;6.30;;;1.90;;
67839;SDS011;54636;51.684;5.142;2023-06-04T06:08:22;1.88;;;1.77;;
67839;SDS011;54636;51.684;5.142;2023-06-04T06:10:47;3.70;;;1.92;;
67839;SDS011;54636;51.684;5.142;2023-06-04T06:13:13;2.95;;;2.20;;
67839;SDS011;54636;51.684;5.142;2023-06-04T06:15:38;3.38;;;1.98;;
67839;SDS011;54636;51.684;5.142;2023-06-04T06:18:04;1.77;;;1.63;;
67839;SDS011;54636;51.684;5.142;2023-06-04T06:20:30;3.28;;;2.05;;
67839;SDS011;54636;51.684;5.142;2023-06-04T06:22:57;7.50;;;1.65;;
67839;SDS011;54636;51.684;5.142;2023-06-04T06:25:22;3.58;;;2.10;;
67839;SDS011;54636;51.684;5.142;2023-06-04T06:27:48;4.40;;;2.17;;
67839;SDS011;54636;51.684;5.142;2023-06-04T06:30:13;3.08;;;2.10;;
67839;SDS011;54636;51.684;5.142;2023-06-04T06:32:39;4.25;;;1.75;;
67839;SDS011;54636;51.684;5.142;2023-06-04T06:35:04;2.13;;;1.85;;
67839;SDS011;54636;51.684;5.142;2023-06-04T06:37:33;4.35;;;1.75;;
67839;SDS011;54636;51.684;5.142;2023-06-04T06:39:58;4.43;;;1.80;;
67839;SDS011;54636;51.684;5.142;2023-06-04T06:42:24;4.82;;;1.77;;
67839;SDS011;54636;51.684;5.142;2023-06-04T06:44:50;2.45;;;1.65;;
67839;SDS011;54636;51.684;5.142;2023-06-04T06:47:15;2.35;;;1.70;;
67839;SDS011;54636;51.684;5.142;2023-06-04T06:49:41;2.65;;;1.70;;
67839;SDS011;54636;51.684;5.142;2023-06-04T06:52:07;2.88;;;2.20;;
67839;SDS011;54636;51.684;5.142;2023-06-04T06:54:32;3.20;;;2.17;;
67839;SDS011;54636;51.684;5.142;2023-06-04T06:56:58;3.75;;;1.73;;
67839;SDS011;54636;51.684;5.142;2023-06-04T06:59:23;2.85;;;2.05;;
67839;SDS011;54636;51.684;5.142;2023-06-04T07:01:50;2.97;;;1.58;;
67839;SDS011;54636;51.684;5.142;2023-06-04T07:04:15;2.90;;;1.80;;
67839;SDS011;54636;51.684;5.142;2023-06-04T07:06:41;3.80;;;1.95;;
67839;SDS011;54636;51.684;5.142;2023-06-04T07:09:07;4.03;;;1.70;;
67839;SDS011;54636;51.684;5.142;2023-06-04T07:11:33;4.53;;;1.60;;
67839;SDS011;54636;51.684;5.142;2023-06-04T07:13:58;3.53;;;1.83;;
67839;SDS011;54636;51.684;5.142;2023-06-04T07:16:24;4.65;;;1.63;;
67839;SDS011;54636;51.684;5.142;2023-06-04T07:18:49;4.65;;;1.80;;
67839;SDS011;54636;51.684;5.142;2023-06-04T07:21:15;5.60;;;1.85;;
67839;SDS011;54636;51.684;5.142;2023-06-04T07:23:41;2.67;;;1.80;;
67839;SDS011;54636;51.684;5.142;2023-06-04T07:26:10;4.35;;;1.67;;
67839;SDS011;54636;51.684;5.142;2023-06-04T07:28:35;4.40;;;1.90;;
67839;SDS011;54636;51.684;5.142;2023-06-04T07:31:03;3.40;;;1.70;;
67839;SDS011;54636;51.684;5.142;2023-06-04T07:33:29;5.30;;;1.83;;
67839;SDS011;54636;51.684;5.142;2023-06-04T07:35:55;2.17;;;1.83;;
67839;SDS011;54636;51.684;5.142;2023-06-04T07:38:20;2.17;;;1.95;;
67839;SDS011;54636;51.684;5.142;2023-06-04T07:40:48;2.00;;;1.60;;
67839;SDS011;54636;51.684;5.142;2023-06-04T07:43:14;3.70;;;1.83;;
67839;SDS011;54636;51.684;5.142;2023-06-04T07:45:39;3.08;;;1.70;;
67839;SDS011;54636;51.684;5.142;2023-06-04T07:48:05;3.85;;;1.92;;
67839;SDS011;54636;51.684;5.142;2023-06-04T07:50:30;6.60;;;2.05;;
67839;SDS011;54636;51.684;5.142;2023-06-04T07:52:55;7.70;;;2.13;;
67839;SDS011;54636;51.684;5.142;2023-06-04T07:55:21;4.15;;;1.77;;
67839;SDS011;54636;51.684;5.142;2023-06-04T07:57:47;3.83;;;2.03;;
67839;SDS011;54636;51.684;5.142;2023-06-04T08:00:12;3.92;;;2.45;;
67839;SDS011;54636;51.684;5.142;2023-06-04T08:02:39;3.40;;;2.10;;
67839;SDS011;54636;51.684;5.142;2023-06-04T08:05:04;1.85;;;1.73;;
67839;SDS011;54636;51.684;5.142;2023-06-04T08:07:30;4.43;;;1.92;;
67839;SDS011;54636;51.684;5.142;2023-06-04T08:09:55;7.50;;;1.98;;
67839;SDS011;54636;51.684;5.142;2023-06-04T08:12:21;7.93;;;1.90;;
67839;SDS011;54636;51.684;5.142;2023-06-04T08:14:47;3.17;;;1.92;;
67839;SDS011;54636;51.684;5.142;2023-06-04T08:17:15;2.03;;;1.80;;
67839;SDS011;54636;51.684;5.142;2023-06-04T08:19:40;3.22;;;2.08;;
67839;SDS011;54636;51.684;5.142;2023-06-04T08:22:06;2.28;;;1.95;;
67839;SDS011;54636;51.684;5.142;2023-06-04T08:24:31;2.65;;;1.92;;
67839;SDS011;54636;51.684;5.142;2023-06-04T08:26:57;3.00;;;1.70;;
67839;SDS011;54636;51.684;5.142;2023-06-04T08:29:22;3.95;;;1.90;;
67839;SDS011;54636;51.684;5.142;2023-06-04T08:31:48;4.20;;;1.60;;
67839;SDS011;54636;51.684;5.142;2023-06-04T08:34:13;2.65;;;1.33;;
67839;SDS011;54636;51.684;5.142;2023-06-04T08:36:38;2.00;;;1.80;;
67839;SDS011;54636;51.684;5.142;2023-06-04T08:39:04;2.42;;;2.00;;
67839;SDS011;54636;51.684;5.142;2023-06-04T08:41:31;3.78;;;1.60;;
67839;SDS011;54636;51.684;5.142;2023-06-04T08:44:09;2.15;;;1.83;;
67839;SDS011;54636;51.684;5.142;2023-06-04T08:46:38;1.52;;;1.42;;
67839;SDS011;54636;51.684;5.142;2023-06-04T08:49:05;3.33;;;1.67;;
67839;SDS011;54636;51.684;5.142;2023-06-04T08:51:32;2.08;;;1.90;;
67839;SDS011;54636;51.684;5.142;2023-06-04T08:53:59;7.85;;;1.65;;
67839;SDS011;54636;51.684;5.142;2023-06-04T08:56:25;5.85;;;1.80;;
67839;SDS011;54636;51.684;5.142;2023-06-04T08:58:55;5.10;;;1.80;;
67839;SDS011;54636;51.684;5.142;2023-06-04T09:01:24;4.88;;;1.50;;
67839;SDS011;54636;51.684;5.142;2023-06-04T09:03:50;1.60;;;1.50;;
67839;SDS011;54636;51.684;5.142;2023-06-04T09:06:16;7.53;;;2.33;;
67839;SDS011;54636;51.684;5.142;2023-06-04T09:08:42;3.97;;;1.88;;
67839;SDS011;54636;51.684;5.142;2023-06-04T09:11:10;2.15;;;1.92;;
67839;SDS011;54636;51.684;5.142;2023-06-04T09:13:38;1.98;;;1.67;;
67839;SDS011;54636;51.684;5.142;2023-06-04T09:16:05;2.58;;;1.30;;
67839;SDS011;54636;51.684;5.142;2023-06-04T09:18:31;3.33;;;1.80;;
67839;SDS011;54636;51.684;5.142;2023-06-04T09:21:01;2.17;;;1.20;;
67839;SDS011;54636;51.684;5.142;2023-06-04T09:23:27;4.20;;;2.28;;
67839;SDS011;54636;51.684;5.142;2023-06-04T09:25:53;3.97;;;1.35;;
67839;SDS011;54636;51.684;5.142;2023-06-04T09:28:18;7.07;;;1.52;;
67839;SDS011;54636;51.684;5.142;2023-06-04T09:30:52;1.20;;;1.02;;
67839;SDS011;54636;51.684;5.142;2023-06-04T09:33:18;1.88;;;1.65;;
67839;SDS011;54636;51.684;5.142;2023-06-04T09:35:52;3.13;;;1.48;;
67839;SDS011;54636;51.684;5.142;2023-06-04T09:38:18;2.30;;;1.45;;
67839;SDS011;54636;51.684;5.142;2023-06-04T09:40:44;5.55;;;1.40;;
67839;SDS011;54636;51.684;5.142;2023-06-04T09:43:10;2.55;;;1.40;;
67839;SDS011;54636;51.684;5.142;2023-06-04T09:45:36;6.72;;;1.08;;
67839;SDS011;54636;51.684;5.142;2023-06-04T09:48:02;6.50;;;1.40;;
67839;SDS011;54636;51.684;5.142;2023-06-04T09:50:32;3.95;;;1.40;;
67839;SDS011;54636;51.684;5.142;2023-06-04T09:52:59;6.50;;;1.10;;
67839;SDS011;54636;51.684;5.142;2023-06-04T09:55:26;2.53;;;1.15;;
67839;SDS011;54636;51.684;5.142;2023-06-04T09:57:52;0.68;;;0.68;;
67839;SDS011;54636;51.684;5.142;2023-06-04T10:00:19;5.38;;;1.45;;
67839;SDS011;54636;51.684;5.142;2023-06-04T10:02:48;3.40;;;1.42;;
67839;SDS011;54636;51.684;5.142;2023-06-04T10:05:14;3.33;;;1.40;;
67839;SDS011;54636;51.684;5.142;2023-06-04T10:07:44;2.72;;;1.20;;
67839;SDS011;54636;51.684;5.142;2023-06-04T10:10:11;1.17;;;0.90;;
67839;SDS011;54636;51.684;5.142;2023-06-04T10:12:41;3.40;;;1.02;;
67839;SDS011;54636;51.684;5.142;2023-06-04T10:15:13;3.80;;;1.30;;
67839;SDS011;54636;51.684;5.142;2023-06-04T10:17:39;1.25;;;1.08;;
67839;SDS011;54636;51.684;5.142;2023-06-04T10:20:08;1.15;;;1.02;;
67839;SDS011;54636;51.684;5.142;2023-06-04T10:25:06;2.83;;;1.00;;
67839;SDS011;54636;51.684;5.142;2023-06-04T10:27:34;1.30;;;1.20;;
67839;SDS011;54636;51.684;5.142;2023-06-04T10:30:01;10.93;;;1.30;;
67839;SDS011;54636;51.684;5.142;2023-06-04T10:32:27;1.58;;;1.05;;
67839;SDS011;54636;51.684;5.142;2023-06-04T10:34:54;1.55;;;0.80;;
67839;SDS011;54636;51.684;5.142;2023-06-04T10:37:23;1.85;;;1.30;;
67839;SDS011;54636;51.684;5.142;2023-06-04T10:39:53;1.35;;;1.13;;
67839;SDS011;54636;51.684;5.142;2023-06-04T10:42:20;0.98;;;0.98;;
67839;SDS011;54636;51.684;5.142;2023-06-04T10:44:55;1.00;;;1.00;;
67839;SDS011;54636;51.684;5.142;2023-06-04T10:47:27;1.20;;;1.10;;
67839;SDS011;54636;51.684;5.142;2023-06-04T10:50:06;4.00;;;1.00;;
67839;SDS011;54636;51.684;5.142;2023-06-04T10:52:33;5.40;;;1.10;;
67839;SDS011;54636;51.684;5.142;2023-06-04T10:55:03;3.63;;;1.25;;
67839;SDS011;54636;51.684;5.142;2023-06-04T10:57:29;2.95;;;0.88;;
67839;SDS011;54636;51.684;5.142;2023-06-04T10:59:57;1.35;;;1.00;;
67839;SDS011;54636;51.684;5.142;2023-06-04T11:02:24;1.00;;;1.00;;
67839;SDS011;54636;51.684;5.142;2023-06-04T11:05:02;1.05;;;1.05;;
67839;SDS011;54636;51.684;5.142;2023-06-04T11:07:44;1.73;;;0.90;;
67839;SDS011;54636;51.684;5.142;2023-06-04T11:10:14;1.65;;;1.15;;
67839;SDS011;54636;51.684;5.142;2023-06-04T11:12:45;1.88;;;1.33;;
67839;SDS011;54636;51.684;5.142;2023-06-04T11:15:12;1.00;;;1.00;;
67839;SDS011;54636;51.684;5.142;2023-06-04T11:17:38;1.08;;;0.90;;
67839;SDS011;54636;51.684;5.142;2023-06-04T11:20:17;2.40;;;0.80;;
67839;SDS011;54636;51.684;5.142;2023-06-04T11:22:54;2.65;;;0.80;;
67839;SDS011;54636;51.684;5.142;2023-06-04T11:25:25;0.80;;;0.70;;
67839;SDS011;54636;51.684;5.142;2023-06-04T11:27:54;2.58;;;0.93;;
67839;SDS011;54636;51.684;5.142;2023-06-04T11:30:21;5.50;;;1.00;;
67839;SDS011;54636;51.684;5.142;2023-06-04T11:32:47;1.20;;;1.10;;
67839;SDS011;54636;51.684;5.142;2023-06-04T11:35:12;0.90;;;0.80;;
67839;SDS011;54636;51.684;5.142;2023-06-04T11:37:38;1.15;;;0.90;;
67839;SDS011;54636;51.684;5.142;2023-06-04T11:40:14;3.33;;;1.02;;
67839;SDS011;54636;51.684;5.142;2023-06-04T11:42:42;2.97;;;0.85;;
67839;SDS011;54636;51.684;5.142;2023-06-04T11:45:12;5.30;;;1.10;;
67839;SDS011;54636;51.684;5.142;2023-06-04T11:47:39;7.53;;;1.48;;
67839;SDS011;54636;51.684;5.142;2023-06-04T11:50:06;5.10;;;1.00;;
67839;SDS011;54636;51.684;5.142;2023-06-04T11:52:33;2.67;;;0.93;;
67839;SDS011;54636;51.684;5.142;2023-06-04T11:54:58;0.90;;;0.90;;
67839;SDS011;54636;51.684;5.142;2023-06-04T11:57:24;1.10;;;1.00;;
67839;SDS011;54636;51.684;5.142;2023-06-04T11:59:50;1.05;;;0.80;;
67839;SDS011;54636;51.684;5.142;2023-06-04T12:02:15;0.98;;;0.90;;
67839;SDS011;54636;51.684;5.142;2023-06-04T12:04:41;2.58;;;1.20;;
67839;SDS011;54636;51.684;5.142;2023-06-04T12:07:06;4.22;;;1.20;;
67839;SDS011;54636;51.684;5.142;2023-06-04T12:09:34;1.70;;;1.00;;
67839;SDS011;54636;51.684;5.142;2023-06-04T12:12:06;0.73;;;0.73;;
67839;SDS011;54636;51.684;5.142;2023-06-04T12:14:33;2.80;;;1.40;;
67839;SDS011;54636;51.684;5.142;2023-06-04T12:17:05;1.20;;;1.10;;
67839;SDS011;54636;51.684;5.142;2023-06-04T12:19:31;1.35;;;1.10;;
67839;SDS011;54636;51.684;5.142;2023-06-04T12:22:05;4.03;;;1.08;;
67839;SDS011;54636;51.684;5.142;2023-06-04T12:24:32;3.78;;;1.08;;
67839;SDS011;54636;51.684;5.142;2023-06-04T12:29:29;2.60;;;1.10;;
67839;SDS011;54636;51.684;5.142;2023-06-04T12:32:15;2.28;;;1.02;;
67839;SDS011;54636;51.684;5.142;2023-06-04T12:34:40;2.30;;;1.25;;
67839;SDS011;54636;51.684;5.142;2023-06-04T12:37:06;2.28;;;1.00;;
67839;SDS011;54636;51.684;5.142;2023-06-04T12:39:33;1.85;;;1.17;;
67839;SDS011;54636;51.684;5.142;2023-06-04T12:42:07;1.42;;;0.80;;
67839;SDS011;54636;51.684;5.142;2023-06-04T12:44:36;2.10;;;1.42;;
67839;SDS011;54636;51.684;5.142;2023-06-04T12:47:03;3.53;;;1.20;;
67839;SDS011;54636;51.684;5.142;2023-06-04T12:49:29;4.82;;;1.55;;
67839;SDS011;54636;51.684;5.142;2023-06-04T12:51:54;7.18;;;1.52;;
67839;SDS011;54636;51.684;5.142;2023-06-04T12:54:20;2.25;;;1.05;;
67839;SDS011;54636;51.684;5.142;2023-06-04T12:56:45;1.85;;;1.35;;
67839;SDS011;54636;51.684;5.142;2023-06-04T12:59:12;1.63;;;1.20;;
67839;SDS011;54636;51.684;5.142;2023-06-04T13:01:37;1.63;;;1.13;;
67839;SDS011;54636;51.684;5.142;2023-06-04T13:04:03;0.90;;;0.90;;
67839;SDS011;54636;51.684;5.142;2023-06-04T13:06:29;1.70;;;1.20;;
67839;SDS011;54636;51.684;5.142;2023-06-04T13:08:55;1.55;;;1.02;;
67839;SDS011;54636;51.684;5.142;2023-06-04T13:11:21;1.58;;;1.30;;
67839;SDS011;54636;51.684;5.142;2023-06-04T13:13:47;3.50;;;1.20;;
67839;SDS011;54636;51.684;5.142;2023-06-04T13:16:13;4.38;;;0.88;;
67839;SDS011;54636;51.684;5.142;2023-06-04T13:18:38;2.63;;;1.60;;
67839;SDS011;54636;51.684;5.142;2023-06-04T13:21:03;1.48;;;1.38;;
67839;SDS011;54636;51.684;5.142;2023-06-04T13:23:29;2.08;;;0.70;;
67839;SDS011;54636;51.684;5.142;2023-06-04T13:25:54;2.33;;;1.33;;
67839;SDS011;54636;51.684;5.142;2023-06-04T13:28:20;2.25;;;1.15;;
67839;SDS011;54636;51.684;5.142;2023-06-04T13:30:45;1.67;;;1.20;;
67839;SDS011;54636;51.684;5.142;2023-06-04T13:33:11;1.55;;;1.20;;
67839;SDS011;54636;51.684;5.142;2023-06-04T13:35:37;1.20;;;1.20;;
67839;SDS011;54636;51.684;5.142;2023-06-04T13:38:03;1.17;;;1.02;;
67839;SDS011;54636;51.684;5.142;2023-06-04T13:40:29;1.77;;;0.85;;
67839;SDS011;54636;51.684;5.142;2023-06-04T13:42:55;1.67;;;1.35;;
67839;SDS011;54636;51.684;5.142;2023-06-04T13:45:20;5.47;;;1.45;;
67839;SDS011;54636;51.684;5.142;2023-06-04T13:47:49;1.67;;;1.58;;
67839;SDS011;54636;51.684;5.142;2023-06-04T13:50:15;4.78;;;1.20;;
67839;SDS011;54636;51.684;5.142;2023-06-04T13:52:40;1.63;;;1.30;;
67839;SDS011;54636;51.684;5.142;2023-06-04T13:55:06;2.05;;;1.10;;
67839;SDS011;54636;51.684;5.142;2023-06-04T13:57:32;2.90;;;1.40;;
67839;SDS011;54636;51.684;5.142;2023-06-04T13:59:57;1.40;;;1.17;;
67839;SDS011;54636;51.684;5.142;2023-06-04T14:02:23;2.28;;;0.85;;
67839;SDS011;54636;51.684;5.142;2023-06-04T14:04:49;2.15;;;1.17;;
67839;SDS011;54636;51.684;5.142;2023-06-04T14:07:16;3.70;;;1.45;;
67839;SDS011;54636;51.684;5.142;2023-06-04T14:09:42;1.50;;;1.20;;
67839;SDS011;54636;51.684;5.142;2023-06-04T14:12:07;3.65;;;1.20;;
67839;SDS011;54636;51.684;5.142;2023-06-04T14:14:33;4.25;;;1.35;;
67839;SDS011;54636;51.684;5.142;2023-06-04T14:17:02;1.17;;;1.17;;
67839;SDS011;54636;51.684;5.142;2023-06-04T14:19:28;4.80;;;1.60;;
67839;SDS011;54636;51.684;5.142;2023-06-04T14:21:54;8.52;;;1.50;;
67839;SDS011;54636;51.684;5.142;2023-06-04T14:24:19;1.25;;;1.20;;
67839;SDS011;54636;51.684;5.142;2023-06-04T14:26:44;3.88;;;1.33;;
67839;SDS011;54636;51.684;5.142;2023-06-04T14:29:10;4.63;;;1.73;;
67839;SDS011;54636;51.684;5.142;2023-06-04T14:31:36;1.30;;;1.20;;
67839;SDS011;54636;51.684;5.142;2023-06-04T14:34:01;1.75;;;1.60;;
67839;SDS011;54636;51.684;5.142;2023-06-04T14:36:29;1.63;;;1.40;;
67839;SDS011;54636;51.684;5.142;2023-06-04T14:38:55;2.25;;;1.60;;
67839;SDS011;54636;51.684;5.142;2023-06-04T14:41:20;3.60;;;1.70;;
67839;SDS011;54636;51.684;5.142;2023-06-04T14:43:45;1.60;;;1.50;;
67839;SDS011;54636;51.684;5.142;2023-06-04T14:46:11;1.85;;;1.75;;
67839;SDS011;54636;51.684;5.142;2023-06-04T14:48:36;4.03;;;1.27;;
67839;SDS011;54636;51.684;5.142;2023-06-04T14:51:02;2.22;;;1.52;;
67839;SDS011;54636;51.684;5.142;2023-06-04T14:53:27;1.80;;;1.50;;
67839;SDS011;54636;51.684;5.142;2023-06-04T14:55:52;2.60;;;1.23;;